createdAt,value
2019-03-15T00:00:41.150Z,76.57
2019-03-15T00:01:46.428Z,76.43
2019-03-15T00:02:50.060Z,76.43
2019-03-15T00:03:53.728Z,76.34
2019-03-15T00:04:57.727Z,76.14
2019-03-15T00:06:01.421Z,75.99
2019-03-15T00:07:05.063Z,75.84
2019-03-15T00:08:09.114Z,75.20
2019-03-15T00:09:12.784Z,75.74
2019-03-15T00:10:16.806Z,75.72
2019-03-15T00:11:20.812Z,76.15
2019-03-15T00:12:24.448Z,76.34
2019-03-15T00:13:28.083Z,76.56
2019-03-15T00:14:31.754Z,76.58
2019-03-15T00:15:35.392Z,76.14
2019-03-15T00:16:39.035Z,75.71
2019-03-15T00:17:42.666Z,75.45
2019-03-15T00:18:46.946Z,75.21
2019-03-15T00:19:50.712Z,74.93
2019-03-15T00:20:54.346Z,74.77
2019-03-15T00:21:58.065Z,74.59
2019-03-15T00:23:01.690Z,74.77
2019-03-15T00:24:05.322Z,75.12
2019-03-15T00:25:09.057Z,75.12
2019-03-15T00:26:12.697Z,75.69
2019-03-15T00:27:16.333Z,75.62
2019-03-15T00:28:19.962Z,75.84
2019-03-15T00:29:23.604Z,75.63
2019-03-15T00:30:27.231Z,75.55
2019-03-15T00:31:30.864Z,75.18
2019-03-15T00:32:34.675Z,75.00
2019-03-15T00:33:38.401Z,74.75
2019-03-15T00:34:42.686Z,74.39
2019-03-15T00:35:46.875Z,74.25
2019-03-15T00:36:50.875Z,73.77
2019-03-15T00:37:54.506Z,74.40
2019-03-15T00:38:58.135Z,74.67
2019-03-15T00:40:01.841Z,74.95
2019-03-15T00:41:05.525Z,75.25
2019-03-15T00:42:09.577Z,75.12
2019-03-15T00:43:13.198Z,75.02
2019-03-15T00:44:16.828Z,74.97
2019-03-15T00:45:20.453Z,74.83
2019-03-15T00:46:24.464Z,74.86
2019-03-15T00:47:28.421Z,74.83
2019-03-15T00:48:32.051Z,74.72
2019-03-15T00:49:35.684Z,74.84
2019-03-15T00:50:39.314Z,74.67
2019-03-15T00:51:42.988Z,74.43
2019-03-15T00:52:46.623Z,74.87
2019-03-15T00:53:50.254Z,75.48
2019-03-15T00:54:53.885Z,76.48
2019-03-15T00:55:57.510Z,76.69
2019-03-15T00:57:01.176Z,76.61
2019-03-15T00:58:04.809Z,76.28
2019-03-15T00:59:08.458Z,76.06
2019-03-15T01:00:16.510Z,75.77
2019-03-15T01:01:20.577Z,75.65
2019-03-15T01:02:24.389Z,75.54
2019-03-15T01:03:28.015Z,75.45
2019-03-15T01:04:31.656Z,75.60
2019-03-15T01:05:35.287Z,76.12
2019-03-15T01:06:38.937Z,77.17
2019-03-15T01:07:42.538Z,77.17
2019-03-15T01:08:46.242Z,77.77
2019-03-15T01:09:49.880Z,78.11
2019-03-15T01:10:53.615Z,78.69
2019-03-15T01:11:57.244Z,78.61
2019-03-15T01:13:01.029Z,78.57
2019-03-15T01:14:04.672Z,78.83
2019-03-15T01:15:10.938Z,78.68
2019-03-15T01:16:14.561Z,78.50
2019-03-15T01:17:18.199Z,78.40
2019-03-15T01:18:22.232Z,78.29
2019-03-15T01:19:26.186Z,78.48
2019-03-15T01:20:29.891Z,79.05
2019-03-15T01:21:33.525Z,78.83
2019-03-15T01:22:37.154Z,79.50
2019-03-15T01:23:40.826Z,79.89
2019-03-15T01:24:44.453Z,80.21
2019-03-15T01:25:48.160Z,80.07
2019-03-15T01:26:51.858Z,79.77
2019-03-15T01:27:55.498Z,79.46
2019-03-15T01:28:59.459Z,79.16
2019-03-15T01:30:03.163Z,78.94
2019-03-15T01:31:06.871Z,78.71
2019-03-15T01:32:10.507Z,78.55
2019-03-15T01:33:14.135Z,78.16
2019-03-15T01:34:18.197Z,79.15
2019-03-15T01:35:21.839Z,79.49
2019-03-15T01:36:25.929Z,79.84
2019-03-15T01:37:29.559Z,80.13
2019-03-15T01:38:33.196Z,80.33
2019-03-15T01:39:36.838Z,80.15
2019-03-15T01:40:40.470Z,79.96
2019-03-15T01:41:44.169Z,79.75
2019-03-15T01:42:48.045Z,79.45
2019-03-15T01:43:51.820Z,79.25
2019-03-15T01:44:55.515Z,79.13
2019-03-15T01:45:59.225Z,79.03
2019-03-15T01:47:02.866Z,78.70
2019-03-15T01:48:06.598Z,79.03
2019-03-15T01:49:10.229Z,79.29
2019-03-15T01:50:13.901Z,79.16
2019-03-15T01:51:17.603Z,79.47
2019-03-15T01:52:21.311Z,79.73
2019-03-15T01:53:24.882Z,79.72
2019-03-15T01:54:28.512Z,79.59
2019-03-15T01:55:32.262Z,79.40
2019-03-15T01:56:35.974Z,79.25
2019-03-15T01:57:39.671Z,79.07
2019-03-15T01:58:43.312Z,78.96
2019-03-15T01:59:46.872Z,79.25
2019-03-15T02:00:50.546Z,79.00
2019-03-15T02:01:54.244Z,79.42
2019-03-15T02:02:57.876Z,79.34
2019-03-15T02:04:01.507Z,79.64
2019-03-15T02:05:05.848Z,79.70
2019-03-15T02:06:09.587Z,79.77
2019-03-15T02:07:13.307Z,79.62
2019-03-15T02:08:16.930Z,79.40
2019-03-15T02:09:20.601Z,79.23
2019-03-15T02:10:24.156Z,79.11
2019-03-15T02:11:27.853Z,79.00
2019-03-15T02:12:31.495Z,78.83
2019-03-15T02:13:35.054Z,78.84
2019-03-15T02:14:38.721Z,78.78
2019-03-15T02:15:43.424Z,79.44
2019-03-15T02:16:47.395Z,79.83
2019-03-15T02:17:51.032Z,80.22
2019-03-15T02:18:54.665Z,80.18
2019-03-15T02:19:58.652Z,80.24
2019-03-15T02:21:02.410Z,80.19
2019-03-15T02:22:06.114Z,80.03
2019-03-15T02:23:09.759Z,80.04
2019-03-15T02:24:13.571Z,79.88
2019-03-15T02:25:17.512Z,79.71
2019-03-15T02:26:21.147Z,79.54
2019-03-15T02:27:24.846Z,79.17
2019-03-15T02:28:28.498Z,79.79
2019-03-15T02:29:32.120Z,80.20
2019-03-15T02:30:35.787Z,80.03
2019-03-15T02:31:39.421Z,79.92
2019-03-15T02:32:43.046Z,80.32
2019-03-15T02:33:46.671Z,80.44
2019-03-15T02:34:50.334Z,80.37
2019-03-15T02:35:53.996Z,80.17
2019-03-15T02:36:57.707Z,79.95
2019-03-15T02:38:01.343Z,79.84
2019-03-15T02:39:06.484Z,79.78
2019-03-15T02:40:10.369Z,79.72
2019-03-15T02:41:14.061Z,80.10
2019-03-15T02:42:17.770Z,80.07
2019-03-15T02:43:21.403Z,80.40
2019-03-15T02:44:25.364Z,80.51
2019-03-15T02:45:29.571Z,80.67
2019-03-15T02:46:33.215Z,80.86
2019-03-15T02:47:36.888Z,81.10
2019-03-15T02:48:40.839Z,81.04
2019-03-15T02:49:44.764Z,80.92
2019-03-15T02:50:48.493Z,80.71
2019-03-15T02:51:52.154Z,80.53
2019-03-15T02:52:55.834Z,80.29
2019-03-15T02:54:00.903Z,80.01
2019-03-15T02:55:05.983Z,79.72
2019-03-15T02:56:09.643Z,79.83
2019-03-15T02:57:13.267Z,80.08
2019-03-15T02:58:17.003Z,80.42
2019-03-15T02:59:21.129Z,80.53
2019-03-15T03:00:24.939Z,80.97
2019-03-15T03:01:28.582Z,80.95
2019-03-15T03:02:32.239Z,80.74
2019-03-15T03:03:35.845Z,81.64
2019-03-15T03:04:40.909Z,81.39
2019-03-15T03:05:44.967Z,81.16
2019-03-15T03:06:48.932Z,81.13
2019-03-15T03:07:52.605Z,81.01
2019-03-15T03:08:56.320Z,80.90
2019-03-15T03:10:01.014Z,80.99
2019-03-15T03:11:05.344Z,81.13
2019-03-15T03:12:08.981Z,81.71
2019-03-15T03:13:12.654Z,81.74
2019-03-15T03:14:16.297Z,82.00
2019-03-15T03:15:19.924Z,82.04
2019-03-15T03:16:23.562Z,81.91
2019-03-15T03:17:27.196Z,81.72
2019-03-15T03:18:30.874Z,81.51
2019-03-15T03:19:34.553Z,81.13
2019-03-15T03:20:38.214Z,80.88
2019-03-15T03:21:42.315Z,80.68
2019-03-15T03:22:46.170Z,80.94
2019-03-15T03:23:49.838Z,81.03
2019-03-15T03:24:53.477Z,80.80
2019-03-15T03:25:57.122Z,80.67
2019-03-15T03:27:00.753Z,80.98
2019-03-15T03:28:04.409Z,81.22
2019-03-15T03:29:08.075Z,81.52
2019-03-15T03:30:12.060Z,81.56
2019-03-15T03:31:16.404Z,81.29
2019-03-15T03:32:20.429Z,81.01
2019-03-15T03:33:24.070Z,80.77
2019-03-15T03:34:27.682Z,80.57
2019-03-15T03:35:31.315Z,80.57
2019-03-15T03:36:35.320Z,80.67
2019-03-15T03:37:39.439Z,80.75
2019-03-15T03:38:43.078Z,80.54
2019-03-15T03:39:46.745Z,80.36
2019-03-15T03:40:50.791Z,80.50
2019-03-15T03:41:55.038Z,80.09
2019-03-15T03:42:59.127Z,79.29
2019-03-15T03:44:02.868Z,79.42
2019-03-15T03:45:08.325Z,79.39
2019-03-15T03:46:11.952Z,79.27
2019-03-15T03:47:15.602Z,79.13
2019-03-15T03:48:19.228Z,79.01
2019-03-15T03:49:22.870Z,78.85
2019-03-15T03:50:26.517Z,78.46
2019-03-15T03:51:30.226Z,78.20
2019-03-15T03:52:34.064Z,78.55
2019-03-15T03:53:37.746Z,78.86
2019-03-15T03:54:41.374Z,79.25
2019-03-15T03:55:45.125Z,79.54
2019-03-15T03:56:48.852Z,80.10
2019-03-15T03:57:52.481Z,80.09
2019-03-15T03:58:56.206Z,79.80
2019-03-15T03:59:59.892Z,79.51
2019-03-15T04:01:07.331Z,79.24
2019-03-15T04:02:09.282Z,79.17
2019-03-15T04:03:12.918Z,79.03
2019-03-15T04:04:16.556Z,79.38
2019-03-15T04:05:20.206Z,79.81
2019-03-15T04:06:23.889Z,80.02
2019-03-15T04:07:27.827Z,80.28
2019-03-15T04:08:31.475Z,80.41
2019-03-15T04:09:35.117Z,79.96
2019-03-15T04:10:38.766Z,79.83
2019-03-15T04:11:54.609Z,80.03
2019-03-15T04:12:47.807Z,79.88
2019-03-15T04:13:51.452Z,79.50
2019-03-15T04:14:55.099Z,79.25
2019-03-15T04:15:58.735Z,79.36
2019-03-15T04:17:02.419Z,79.35
2019-03-15T04:18:06.787Z,79.10
2019-03-15T04:19:10.501Z,79.47
2019-03-15T04:20:14.447Z,79.56
2019-03-15T04:21:18.159Z,79.46
2019-03-15T04:22:21.809Z,79.66
2019-03-15T04:23:25.403Z,80.32
2019-03-15T04:24:29.418Z,80.76
2019-03-15T04:25:33.056Z,80.77
2019-03-15T04:26:36.704Z,80.41
2019-03-15T04:27:40.700Z,80.08
2019-03-15T04:28:44.367Z,79.75
2019-03-15T04:29:47.936Z,79.48
2019-03-15T04:30:51.594Z,79.27
2019-03-15T04:31:55.221Z,79.30
2019-03-15T04:32:59.381Z,79.33
2019-03-15T04:34:03.105Z,79.62
2019-03-15T04:35:07.231Z,79.89
2019-03-15T04:36:10.872Z,79.43
2019-03-15T04:37:14.516Z,79.90
2019-03-15T04:38:18.129Z,80.17
2019-03-15T04:39:21.787Z,80.36
2019-03-15T04:40:25.435Z,80.20
2019-03-15T04:41:29.191Z,80.08
2019-03-15T04:42:32.918Z,79.91
2019-03-15T04:43:36.566Z,79.83
2019-03-15T04:44:40.223Z,79.51
2019-03-15T04:45:43.861Z,79.23
2019-03-15T04:46:47.500Z,79.25
2019-03-15T04:47:51.147Z,79.74
2019-03-15T04:48:54.790Z,79.54
2019-03-15T04:49:58.530Z,81.40
2019-03-15T04:51:02.177Z,83.08
2019-03-15T04:52:06.155Z,82.34
2019-03-15T04:53:09.803Z,82.02
2019-03-15T04:54:13.383Z,82.53
2019-03-15T04:55:17.058Z,83.95
2019-03-15T04:56:21.693Z,84.57
2019-03-15T04:57:25.319Z,84.07
2019-03-15T04:58:33.294Z,82.74
2019-03-15T04:59:37.010Z,81.46
2019-03-15T05:00:40.706Z,80.49
2019-03-15T05:01:44.353Z,79.93
2019-03-15T05:02:48.086Z,79.73
2019-03-15T05:03:51.737Z,79.80
2019-03-15T05:04:55.371Z,80.10
2019-03-15T05:06:03.688Z,80.70
2019-03-15T05:07:04.518Z,80.63
2019-03-15T05:08:08.248Z,80.05
2019-03-15T05:09:11.826Z,80.02
2019-03-15T05:10:15.865Z,80.21
2019-03-15T05:11:19.482Z,80.02
2019-03-15T05:12:23.491Z,79.98
2019-03-15T05:13:27.492Z,79.87
2019-03-15T05:14:31.088Z,80.07
2019-03-15T05:15:34.730Z,79.83
2019-03-15T05:16:38.412Z,80.02
2019-03-15T05:17:42.133Z,80.20
2019-03-15T05:18:45.702Z,80.27
2019-03-15T05:19:49.353Z,80.52
2019-03-15T05:20:52.989Z,80.73
2019-03-15T05:21:56.673Z,80.67
2019-03-15T05:23:00.321Z,80.89
2019-03-15T05:24:03.968Z,81.16
2019-03-15T05:25:08.345Z,81.11
2019-03-15T05:26:11.956Z,81.17
2019-03-15T05:27:15.628Z,81.15
2019-03-15T05:28:19.279Z,80.81
2019-03-15T05:29:23.003Z,80.63
2019-03-15T05:30:29.474Z,80.78
2019-03-15T05:31:35.836Z,80.90
2019-03-15T05:32:44.167Z,81.11
2019-03-15T05:33:47.788Z,81.26
2019-03-15T05:34:51.764Z,81.44
2019-03-15T05:35:55.345Z,81.74
2019-03-15T05:36:59.006Z,81.78
2019-03-15T05:38:03.821Z,81.72
2019-03-15T05:39:08.531Z,81.78
2019-03-15T05:40:12.218Z,81.95
2019-03-15T05:41:15.873Z,82.05
2019-03-15T05:42:23.435Z,82.24
2019-03-15T05:43:27.109Z,82.04
2019-03-15T05:44:30.893Z,82.34
2019-03-15T05:45:34.544Z,82.17
2019-03-15T05:46:38.185Z,82.02
2019-03-15T05:47:41.830Z,82.02
2019-03-15T05:48:45.437Z,82.13
2019-03-15T05:49:49.080Z,82.04
2019-03-15T05:50:52.740Z,81.84
2019-03-15T05:51:58.267Z,81.89
2019-03-15T05:53:02.230Z,81.84
2019-03-15T05:54:05.880Z,81.73
2019-03-15T05:55:12.027Z,81.88
2019-03-15T05:56:15.684Z,81.31
2019-03-15T05:57:19.330Z,80.94
2019-03-15T05:58:22.948Z,80.75
2019-03-15T05:59:26.953Z,81.06
2019-03-15T06:00:30.605Z,81.09
2019-03-15T06:01:34.239Z,80.94
2019-03-15T06:02:37.879Z,80.60
2019-03-15T06:03:48.480Z,80.38
2019-03-15T06:04:46.918Z,80.20
2019-03-15T06:05:50.579Z,79.59
2019-03-15T06:06:54.241Z,79.35
2019-03-15T06:07:57.872Z,78.83
2019-03-15T06:09:01.519Z,78.59
2019-03-15T06:10:08.117Z,78.78
2019-03-15T06:11:11.746Z,77.37
2019-03-15T06:12:15.373Z,77.42
2019-03-15T06:13:19.029Z,77.22
2019-03-15T06:14:22.729Z,77.14
2019-03-15T06:15:26.402Z,76.72
2019-03-15T06:16:30.035Z,76.71
2019-03-15T06:17:33.665Z,76.44
2019-03-15T06:18:37.308Z,75.83
2019-03-15T06:19:40.965Z,75.51
2019-03-15T06:20:44.639Z,75.14
2019-03-15T06:21:48.259Z,75.16
2019-03-15T06:22:51.896Z,75.42
2019-03-15T06:23:55.635Z,75.87
2019-03-15T06:24:59.263Z,76.06
2019-03-15T06:26:02.928Z,75.87
2019-03-15T06:27:06.562Z,75.01
2019-03-15T06:28:10.200Z,75.05
2019-03-15T06:29:13.829Z,74.55
2019-03-15T06:30:17.479Z,73.59
2019-03-15T06:31:21.317Z,73.36
2019-03-15T06:32:24.856Z,72.62
2019-03-15T06:33:28.970Z,72.10
2019-03-15T06:34:33.070Z,71.93
2019-03-15T06:35:36.703Z,71.48
2019-03-15T06:36:42.007Z,71.70
2019-03-15T06:37:45.631Z,71.33
2019-03-15T06:38:49.339Z,70.56
2019-03-15T06:39:52.977Z,70.89
2019-03-15T06:40:56.612Z,70.86
2019-03-15T06:42:00.288Z,70.24
2019-03-15T06:43:03.923Z,70.05
2019-03-15T06:44:07.552Z,69.75
2019-03-15T06:45:12.801Z,69.08
2019-03-15T06:46:16.362Z,69.06
2019-03-15T06:47:20.023Z,69.37
2019-03-15T06:48:23.580Z,69.70
2019-03-15T06:49:27.227Z,69.43
2019-03-15T06:50:30.874Z,69.04
2019-03-15T06:51:34.498Z,68.75
2019-03-15T06:52:38.145Z,68.51
2019-03-15T06:53:41.781Z,68.23
2019-03-15T06:54:45.354Z,68.37
2019-03-15T06:55:48.994Z,68.87
2019-03-15T06:56:52.621Z,68.50
2019-03-15T06:57:56.290Z,68.03
2019-03-15T06:58:59.931Z,67.43
2019-03-15T07:00:04.159Z,67.54
2019-03-15T07:01:07.808Z,67.73
2019-03-15T07:02:11.509Z,67.96
2019-03-15T07:03:17.274Z,68.41
2019-03-15T07:04:20.902Z,68.55
2019-03-15T07:05:24.532Z,67.68
2019-03-15T07:06:28.096Z,68.11
2019-03-15T07:07:31.786Z,68.24
2019-03-15T07:08:35.475Z,68.46
2019-03-15T07:09:39.112Z,68.19
2019-03-15T07:10:44.174Z,67.88
2019-03-15T07:11:48.162Z,67.31
2019-03-15T07:12:51.792Z,67.98
2019-03-15T07:13:55.889Z,67.44
2019-03-15T07:14:59.493Z,67.57
2019-03-15T07:16:03.181Z,68.12
2019-03-15T07:17:06.821Z,68.27
2019-03-15T07:18:10.538Z,68.38
2019-03-15T07:19:25.607Z,68.48
2019-03-15T07:20:20.681Z,68.06
2019-03-15T07:21:24.629Z,67.31
2019-03-15T07:22:28.265Z,67.42
2019-03-15T07:23:31.907Z,67.75
2019-03-15T07:24:35.546Z,67.95
2019-03-15T07:25:39.222Z,68.14
2019-03-15T07:26:43.862Z,68.01
2019-03-15T07:27:48.019Z,67.85
2019-03-15T07:28:51.660Z,67.58
2019-03-15T07:29:55.304Z,67.90
2019-03-15T07:30:58.983Z,68.17
2019-03-15T07:32:03.000Z,68.56
2019-03-15T07:33:07.945Z,68.33
2019-03-15T07:34:13.928Z,68.19
2019-03-15T07:35:16.941Z,67.72
2019-03-15T07:36:20.625Z,67.16
2019-03-15T07:37:24.256Z,66.78
2019-03-15T07:38:27.892Z,66.62
2019-03-15T07:39:32.433Z,66.73
2019-03-15T07:40:36.015Z,66.39
2019-03-15T07:41:39.692Z,66.18
2019-03-15T07:42:43.320Z,66.40
2019-03-15T07:43:47.413Z,66.20
2019-03-15T07:44:51.420Z,66.30
2019-03-15T07:45:55.048Z,65.33
2019-03-15T07:46:58.720Z,65.55
2019-03-15T07:48:02.345Z,66.40
2019-03-15T07:49:05.991Z,66.70
2019-03-15T07:50:16.168Z,67.59
2019-03-15T07:51:19.795Z,66.54
2019-03-15T07:52:23.459Z,65.95
2019-03-15T07:53:27.137Z,66.64
2019-03-15T07:54:38.016Z,66.39
2019-03-15T07:55:36.604Z,67.04
2019-03-15T07:56:40.272Z,66.63
2019-03-15T07:57:43.870Z,66.46
2019-03-15T07:58:47.507Z,65.53
2019-03-15T07:59:51.137Z,65.62
2019-03-15T08:00:54.765Z,65.01
2019-03-15T08:01:58.403Z,64.66
2019-03-15T08:03:02.062Z,65.04
2019-03-15T08:04:16.287Z,65.83
2019-03-15T08:05:11.483Z,65.53
2019-03-15T08:06:15.112Z,63.72
2019-03-15T08:07:20.167Z,62.96
2019-03-15T08:08:24.151Z,62.54
2019-03-15T08:09:27.809Z,61.93
2019-03-15T08:10:31.522Z,61.97
2019-03-15T08:11:35.157Z,62.10
2019-03-15T08:12:39.001Z,62.10
2019-03-15T08:13:42.720Z,62.54
2019-03-15T08:14:46.360Z,62.51
2019-03-15T08:15:50.005Z,63.16
2019-03-15T08:16:53.640Z,63.27
2019-03-15T08:17:58.937Z,62.79
2019-03-15T08:19:05.171Z,62.35
2019-03-15T08:20:13.510Z,62.03
2019-03-15T08:21:17.182Z,60.73
2019-03-15T08:22:20.993Z,60.31
2019-03-15T08:23:25.362Z,60.03
2019-03-15T08:24:29.006Z,59.58
2019-03-15T08:25:32.644Z,59.59
2019-03-15T08:26:36.329Z,59.70
2019-03-15T08:27:41.305Z,59.58
2019-03-15T08:28:44.946Z,58.08
2019-03-15T08:29:48.587Z,56.89
2019-03-15T08:30:52.229Z,57.86
2019-03-15T08:31:55.905Z,56.48
2019-03-15T08:33:09.586Z,56.48
2019-03-15T08:34:05.180Z,55.28
2019-03-15T08:35:09.908Z,55.19
2019-03-15T08:36:13.512Z,55.72
2019-03-15T08:37:17.185Z,55.67
2019-03-15T08:38:20.824Z,54.03
2019-03-15T08:39:24.891Z,54.03
2019-03-15T08:40:28.538Z,52.56
2019-03-15T08:41:32.190Z,52.88
2019-03-15T08:42:35.856Z,52.88
2019-03-15T08:43:39.490Z,53.07
2019-03-15T08:44:43.058Z,53.07
2019-03-15T08:45:47.125Z,51.56
2019-03-15T08:46:53.561Z,51.19
2019-03-15T08:47:57.247Z,51.40
2019-03-15T08:49:00.892Z,52.38
2019-03-15T08:50:07.031Z,51.71
2019-03-15T08:51:11.084Z,50.79
2019-03-15T08:52:14.799Z,50.79
2019-03-15T08:53:18.445Z,51.29
2019-03-15T08:54:22.081Z,51.47
2019-03-15T08:55:25.765Z,51.43
2019-03-15T08:56:29.401Z,50.72
2019-03-15T08:57:33.051Z,50.03
2019-03-15T08:58:36.734Z,50.03
2019-03-15T08:59:52.769Z,48.77
2019-03-15T09:00:46.183Z,48.49
2019-03-15T09:01:49.831Z,48.46
2019-03-15T09:02:53.484Z,48.71
2019-03-15T09:03:57.157Z,47.65
2019-03-15T09:05:00.795Z,48.52
2019-03-15T09:06:04.441Z,48.54
2019-03-15T09:07:08.073Z,49.55
2019-03-15T09:08:11.707Z,47.96
2019-03-15T09:09:15.404Z,47.69
2019-03-15T09:10:24.021Z,47.47
2019-03-15T09:11:25.105Z,46.81
2019-03-15T09:12:28.814Z,47.47
2019-03-15T09:13:32.446Z,48.22
2019-03-15T09:14:36.113Z,47.68
2019-03-15T09:15:39.756Z,47.09
2019-03-15T09:16:43.401Z,46.43
2019-03-15T09:17:47.341Z,44.87
2019-03-15T09:18:50.995Z,44.99
2019-03-15T09:19:54.667Z,44.59
2019-03-15T09:20:58.309Z,44.95
2019-03-15T09:22:01.953Z,44.09
2019-03-15T09:23:07.515Z,42.78
2019-03-15T09:24:13.681Z,42.57
2019-03-15T09:25:20.185Z,41.89
2019-03-15T09:26:23.671Z,40.85
2019-03-15T09:27:33.002Z,40.40
2019-03-15T09:28:36.579Z,40.88
2019-03-15T09:29:41.802Z,41.26
2019-03-15T09:30:45.467Z,41.20
2019-03-15T09:31:49.110Z,42.12
2019-03-15T09:32:52.746Z,41.68
2019-03-15T09:33:56.387Z,41.18
2019-03-15T09:34:59.953Z,40.15
2019-03-15T09:36:03.704Z,40.31
2019-03-15T09:37:07.333Z,39.11
2019-03-15T09:38:10.982Z,39.05
2019-03-15T09:39:14.728Z,39.52
2019-03-15T09:40:18.379Z,40.77
2019-03-15T09:41:31.450Z,41.30
2019-03-15T09:42:27.431Z,40.32
2019-03-15T09:43:31.465Z,40.42
2019-03-15T09:44:37.531Z,40.53
2019-03-15T09:45:40.929Z,38.31
2019-03-15T09:46:44.591Z,37.41
2019-03-15T09:47:48.352Z,36.56
2019-03-15T09:48:52.056Z,36.70
2019-03-15T09:49:55.696Z,37.33
2019-03-15T09:50:59.421Z,36.32
2019-03-15T09:52:03.094Z,36.73
2019-03-15T09:53:06.733Z,37.81
2019-03-15T09:54:10.493Z,35.96
2019-03-15T09:55:14.741Z,35.07
2019-03-15T09:56:18.400Z,33.66
2019-03-15T09:57:22.067Z,33.88
2019-03-15T09:58:25.700Z,32.63
2019-03-15T09:59:29.437Z,32.34
2019-03-15T10:00:33.079Z,32.83
2019-03-15T10:01:36.718Z,33.26
2019-03-15T10:02:40.390Z,31.82
2019-03-15T10:03:44.037Z,31.64
2019-03-15T10:04:47.672Z,30.25
2019-03-15T10:05:51.311Z,28.85
2019-03-15T10:06:54.953Z,28.79
2019-03-15T10:07:58.641Z,28.82
2019-03-15T10:09:02.345Z,27.92
2019-03-15T10:10:13.973Z,28.36
2019-03-15T10:11:17.340Z,28.19
2019-03-15T10:12:20.970Z,27.64
2019-03-15T10:13:24.718Z,28.81
2019-03-15T10:14:28.382Z,27.88
2019-03-15T10:15:32.038Z,28.01
2019-03-15T10:16:35.684Z,26.97
2019-03-15T10:17:39.296Z,27.36
2019-03-15T10:18:43.052Z,27.33
2019-03-15T10:19:46.716Z,27.76
2019-03-15T10:20:50.375Z,27.45
2019-03-15T10:21:54.074Z,28.11
2019-03-15T10:23:05.814Z,27.71
2019-03-15T10:24:03.229Z,27.54
2019-03-15T10:25:09.742Z,26.70
2019-03-15T10:26:14.991Z,27.08
2019-03-15T10:27:20.298Z,27.22
2019-03-15T10:28:23.928Z,27.77
2019-03-15T10:29:27.624Z,27.69
2019-03-15T10:30:31.280Z,27.10
2019-03-15T10:31:35.243Z,27.00
2019-03-15T10:32:38.876Z,26.66
2019-03-15T10:33:50.314Z,26.19
2019-03-15T10:34:49.251Z,27.54
2019-03-15T10:35:53.244Z,26.68
2019-03-15T10:36:56.929Z,27.24
2019-03-15T10:38:11.783Z,27.20
2019-03-15T10:39:15.421Z,28.78
2019-03-15T10:40:21.006Z,28.61
2019-03-15T10:41:24.634Z,27.23
2019-03-15T10:42:31.254Z,25.92
2019-03-15T10:43:34.904Z,25.50
2019-03-15T10:44:38.896Z,27.19
2019-03-15T10:45:42.562Z,27.47
2019-03-15T10:46:46.207Z,27.61
2019-03-15T10:47:49.843Z,27.68
2019-03-15T10:48:53.658Z,28.51
2019-03-15T10:49:57.267Z,28.57
2019-03-15T10:51:01.022Z,27.91
2019-03-15T10:52:04.653Z,27.85
2019-03-15T10:53:08.360Z,28.08
2019-03-15T10:54:11.994Z,28.35
2019-03-15T10:55:15.823Z,28.61
2019-03-15T10:56:19.515Z,27.22
2019-03-15T10:57:23.147Z,27.01
2019-03-15T10:58:26.763Z,25.79
2019-03-15T10:59:30.390Z,26.58
2019-03-15T11:00:34.028Z,27.19
2019-03-15T11:01:37.698Z,25.54
2019-03-15T11:02:41.334Z,26.12
2019-03-15T11:03:45.032Z,26.05
2019-03-15T11:04:48.742Z,25.16
2019-03-15T11:05:52.372Z,25.51
2019-03-15T11:06:56.397Z,25.17
2019-03-15T11:08:00.014Z,24.98
2019-03-15T11:09:04.448Z,23.97
2019-03-15T11:10:10.482Z,24.36
2019-03-15T11:11:14.114Z,24.07
2019-03-15T11:12:17.852Z,23.58
2019-03-15T11:13:21.802Z,22.80
2019-03-15T11:14:25.433Z,23.04
2019-03-15T11:15:29.066Z,24.42
2019-03-15T11:16:32.699Z,24.67
2019-03-15T11:17:36.382Z,24.50
2019-03-15T11:18:40.007Z,23.72
2019-03-15T11:19:43.642Z,23.49
2019-03-15T11:20:47.269Z,23.93
2019-03-15T11:21:50.900Z,24.72
2019-03-15T11:22:54.509Z,25.66
2019-03-15T11:23:58.137Z,25.87
2019-03-15T11:25:01.846Z,26.60
2019-03-15T11:26:13.603Z,26.23
2019-03-15T11:27:10.828Z,24.56
2019-03-15T11:28:14.493Z,24.55
2019-03-15T11:29:18.122Z,23.44
2019-03-15T11:30:21.749Z,23.04
2019-03-15T11:31:25.378Z,23.54
2019-03-15T11:32:29.036Z,23.09
2019-03-15T11:33:32.663Z,23.54
2019-03-15T11:34:36.292Z,22.83
2019-03-15T11:35:39.928Z,23.31
2019-03-15T11:36:43.569Z,23.28
2019-03-15T11:37:47.192Z,22.62
2019-03-15T11:38:50.865Z,21.95
2019-03-15T11:39:54.505Z,22.00
2019-03-15T11:40:58.141Z,20.95
2019-03-15T11:42:01.764Z,21.44
2019-03-15T11:43:05.406Z,20.52
2019-03-15T11:44:09.070Z,20.07
2019-03-15T11:45:13.605Z,21.25
2019-03-15T11:46:17.169Z,19.96
2019-03-15T11:47:21.127Z,20.10
2019-03-15T11:48:24.743Z,20.35
2019-03-15T11:49:28.676Z,20.34
2019-03-15T11:50:32.803Z,20.70
2019-03-15T11:51:36.444Z,19.90
2019-03-15T11:52:40.171Z,19.94
2019-03-15T11:53:43.804Z,19.03
2019-03-15T11:54:49.784Z,19.39
2019-03-15T11:55:52.835Z,19.04
2019-03-15T11:56:56.478Z,18.65
2019-03-15T11:58:00.430Z,17.56
2019-03-15T11:59:04.068Z,19.63
2019-03-15T12:00:10.797Z,19.48
2019-03-15T12:01:14.445Z,19.61
2019-03-15T12:02:18.074Z,19.20
2019-03-15T12:03:21.783Z,19.97
2019-03-15T12:04:25.402Z,18.43
2019-03-15T12:05:28.998Z,18.39
2019-03-15T12:06:32.684Z,18.24
2019-03-15T12:07:36.323Z,18.07
2019-03-15T12:08:39.950Z,18.37
2019-03-15T12:09:43.587Z,17.86
2019-03-15T12:10:47.248Z,18.10
2019-03-15T12:11:50.875Z,17.53
2019-03-15T12:12:54.508Z,17.83
2019-03-15T12:13:58.222Z,16.87
2019-03-15T12:15:01.886Z,18.00
2019-03-15T12:16:05.534Z,18.32
2019-03-15T12:17:09.172Z,19.09
2019-03-15T12:18:12.799Z,18.92
2019-03-15T12:19:16.434Z,18.24
2019-03-15T12:20:20.143Z,17.26
2019-03-15T12:21:24.003Z,17.75
2019-03-15T12:22:27.567Z,17.95
2019-03-15T12:23:31.272Z,18.79
2019-03-15T12:24:34.850Z,18.45
2019-03-15T12:25:38.476Z,19.00
2019-03-15T12:26:42.153Z,18.89
2019-03-15T12:27:45.849Z,18.67
2019-03-15T12:28:49.488Z,18.59
2019-03-15T12:29:53.124Z,17.66
2019-03-15T12:30:57.177Z,18.22
2019-03-15T12:32:00.853Z,18.01
2019-03-15T12:33:04.481Z,19.23
2019-03-15T12:34:08.119Z,18.71
2019-03-15T12:35:13.625Z,18.08
2019-03-15T12:36:17.254Z,18.04
2019-03-15T12:37:20.840Z,17.48
2019-03-15T12:38:24.477Z,16.64
2019-03-15T12:39:28.106Z,17.30
2019-03-15T12:40:31.743Z,18.57
2019-03-15T12:41:35.388Z,17.97
2019-03-15T12:42:39.062Z,17.53
2019-03-15T12:43:43.132Z,17.16
2019-03-15T12:44:46.761Z,18.41
2019-03-15T12:45:50.401Z,18.51
2019-03-15T12:46:54.042Z,18.54
2019-03-15T12:47:57.970Z,18.97
2019-03-15T12:49:01.608Z,18.69
2019-03-15T12:50:11.806Z,18.88
2019-03-15T12:51:15.122Z,18.63
2019-03-15T12:52:20.607Z,18.02
2019-03-15T12:53:24.148Z,18.46
2019-03-15T12:54:27.788Z,18.21
2019-03-15T12:55:31.336Z,17.85
2019-03-15T12:56:35.071Z,19.02
2019-03-15T12:57:38.707Z,19.13
2019-03-15T12:58:42.359Z,19.53
2019-03-15T12:59:46.374Z,18.26
2019-03-15T13:00:50.012Z,18.25
2019-03-15T13:01:53.646Z,18.10
2019-03-15T13:02:57.279Z,18.17
2019-03-15T13:04:00.949Z,18.12
2019-03-15T13:05:05.374Z,18.78
2019-03-15T13:06:09.010Z,18.10
2019-03-15T13:07:12.649Z,18.27
2019-03-15T13:08:16.218Z,18.05
2019-03-15T13:09:19.892Z,18.79
2019-03-15T13:10:23.826Z,19.14
2019-03-15T13:11:27.448Z,20.04
2019-03-15T13:12:31.071Z,20.21
2019-03-15T13:13:34.699Z,19.29
2019-03-15T13:14:38.283Z,19.47
2019-03-15T13:15:41.904Z,18.96
2019-03-15T13:16:45.537Z,19.70
2019-03-15T13:17:49.175Z,19.72
2019-03-15T13:18:52.802Z,18.90
2019-03-15T13:19:56.467Z,19.78
2019-03-15T13:21:00.100Z,18.88
2019-03-15T13:22:03.736Z,18.58
2019-03-15T13:23:07.362Z,19.44
2019-03-15T13:24:10.992Z,18.53
2019-03-15T13:25:14.628Z,18.70
2019-03-15T13:26:18.256Z,18.81
2019-03-15T13:27:22.228Z,18.82
2019-03-15T13:28:25.869Z,18.40
2019-03-15T13:29:29.574Z,18.48
2019-03-15T13:30:33.240Z,19.07
2019-03-15T13:31:36.874Z,19.87
2019-03-15T13:32:40.511Z,19.92
2019-03-15T13:33:44.144Z,19.65
2019-03-15T13:34:47.696Z,19.64
2019-03-15T13:35:51.432Z,20.07
2019-03-15T13:36:55.050Z,19.08
2019-03-15T13:37:58.688Z,19.06
2019-03-15T13:39:02.252Z,19.25
2019-03-15T13:40:16.862Z,19.97
2019-03-15T13:41:20.528Z,19.11
2019-03-15T13:42:24.169Z,18.87
2019-03-15T13:43:27.893Z,19.69